Time;durP1;ratioP1;P1;durP2;ratioP2;P2;SDS_P1;SDS_P2;PMS_P1;PMS_P2;Temp;Humidity;BMP_temperature;BMP_pressure;BME280_temperature;BME280_humidity;BME280_pressure;Samples;Min_cycle;Max_cycle;Signal;HPM_P1;HPM_P2
2023/10/16 00:00:29;;;;;;;4.57;1.60;;;;;;;7.47;100.00;100699.62;5588491;31;34130;-64
2023/10/16 00:03:32;;;;;;;5.72;2.05;;;;;;;7.38;100.00;100710.03;5588508;31;34369;-66
2023/10/16 00:06:35;;;;;;;4.80;1.92;;;;;;;7.32;100.00;100715.88;5574689;31;34295;-65
2023/10/16 00:09:39;;;;;;;5.07;1.87;;;;;;;7.26;100.00;100718.25;5588350;31;34097;-65
2023/10/16 00:12:42;;;;;;;10.52;2.10;;;;;;;7.25;100.00;100725.34;5588311;31;34192;-65
2023/10/16 00:15:49;;;;;;;4.57;1.60;;;;;;;7.20;100.00;100724.91;5588170;31;34217;-65
2023/10/16 00:18:53;;;;;;;5.72;2.05;;;;;;;7.14;100.00;100733.38;5588255;31;35132;-65
2023/10/16 00:21:57;;;;;;;3.83;1.80;;;;;;;7.23;100.00;100739.63;5588136;31;33922;-65
2023/10/16 00:25:00;;;;;;;7.60;1.90;;;;;;;7.16;100.00;100736.72;5588128;31;34376;-65
2023/10/16 00:28:06;;;;;;;6.53;2.10;;;;;;;7.19;100.00;100739.06;5587931;31;34083;-66
2023/10/16 00:31:09;;;;;;;4.62;1.83;;;;;;;7.17;100.00;100740.16;5588339;31;34217;-65
2023/10/16 00:34:19;;;;;;;8.40;1.90;;;;;;;7.13;100.00;100747.53;5587899;31;34956;-65
2023/10/16 00:37:25;;;;;;;8.30;2.10;;;;;;;7.12;100.00;100748.47;5587826;31;34128;-66
2023/10/16 00:40:33;;;;;;;7.90;2.20;;;;;;;7.08;100.00;100746.25;5587838;31;34898;-64
2023/10/16 00:43:36;;;;;;;5.40;2.00;;;;;;;7.07;100.00;100742.78;5587745;31;34036;-65
2023/10/16 00:46:44;;;;;;;7.35;2.10;;;;;;;7.17;100.00;100746.28;5587685;31;35124;-66
2023/10/16 00:49:49;;;;;;;4.53;1.83;;;;;;;7.06;100.00;100746.41;5588276;31;34143;-65
2023/10/16 00:52:52;;;;;;;4.72;1.80;;;;;;;7.04;100.00;100750.16;5590434;31;34131;-65
2023/10/16 00:55:55;;;;;;;8.40;2.60;;;;;;;7.02;100.00;100755.53;5590413;31;34121;-65
2023/10/16 00:58:59;;;;;;;7.37;2.17;;;;;;;6.98;100.00;100755.00;5590360;31;34036;-65
2023/10/16 01:02:13;;;;;;;6.40;1.70;;;;;;;6.91;100.00;100740.69;5590610;31;34766;-64
2023/10/16 01:05:23;;;;;;;5.80;2.08;;;;;;;6.85;100.00;100743.03;5590540;31;34152;-65
2023/10/16 01:08:26;;;;;;;7.13;2.03;;;;;;;6.78;100.00;100741.87;5590391;31;34165;-65
2023/10/16 01:11:29;;;;;;;8.98;2.10;;;;;;;6.71;100.00;100732.84;5590267;31;33970;-64
2023/10/16 01:14:37;;;;;;;6.70;2.12;;;;;;;6.67;100.00;100734.94;5590201;31;34037;-64
2023/10/16 01:17:41;;;;;;;6.20;2.00;;;;;;;6.69;100.00;100740.06;5590193;31;35610;-65
2023/10/16 01:20:48;;;;;;;5.00;1.73;;;;;;;6.66;100.00;100738.53;5590110;31;34715;-65
2023/10/16 01:23:51;;;;;;;5.28;2.00;;;;;;;6.61;100.00;100734.63;5590130;31;34074;-65
2023/10/16 01:27:01;;;;;;;5.95;2.05;;;;;;;6.56;100.00;100740.31;5590093;31;34248;-65
2023/10/16 01:30:09;;;;;;;6.43;2.00;;;;;;;6.58;100.00;100741.00;5590341;31;34164;-65
2023/10/16 01:33:13;;;;;;;7.97;2.20;;;;;;;6.56;100.00;100753.47;5590098;31;34202;-64
2023/10/16 01:36:17;;;;;;;7.75;1.87;;;;;;;6.55;100.00;100765.81;5589960;31;34732;-65
2023/10/16 01:39:47;;;;;;;5.78;1.95;;;;;;;6.52;100.00;100760.81;5589989;31;34216;-65
2023/10/16 01:42:54;;;;;;;5.40;2.20;;;;;;;6.42;100.00;100767.84;5590067;31;34093;-65
2023/10/16 01:46:01;;;;;;;5.75;1.65;;;;;;;6.40;100.00;100769.78;5590050;31;32314;-65
2023/10/16 01:49:05;;;;;;;5.90;1.92;;;;;;;6.42;100.00;100773.13;5589930;31;34224;-64
2023/10/16 01:52:12;;;;;;;4.10;1.42;;;;;;;6.38;100.00;100777.00;5589886;31;34104;-64
2023/10/16 01:55:16;;;;;;;6.97;1.62;;;;;;;6.35;100.00;100768.50;5589650;31;34117;-64
2023/10/16 01:58:21;;;;;;;5.07;1.62;;;;;;;6.28;100.00;100781.38;5589873;31;34881;-65
2023/10/16 02:01:25;;;;;;;4.87;1.62;;;;;;;6.32;100.00;100772.25;5589226;31;34685;-65
2023/10/16 02:04:29;;;;;;;5.35;1.62;;;;;;;6.29;100.00;100771.69;5589921;31;34246;-65
2023/10/16 02:07:33;;;;;;;4.07;1.52;;;;;;;6.27;100.00;100784.12;5589867;31;34004;-65
2023/10/16 02:10:36;;;;;;;5.15;1.85;;;;;;;6.20;100.00;100773.25;5589729;31;34008;-66
2023/10/16 02:13:40;;;;;;;4.82;1.80;;;;;;;6.24;100.00;100792.31;5589768;31;35108;-64
2023/10/16 02:16:47;;;;;;;2.78;1.40;;;;;;;6.20;100.00;100789.06;5589662;31;34147;-65
2023/10/16 02:19:50;;;;;;;5.40;1.80;;;;;;;6.23;100.00;100801.16;5589704;31;33983;-65
2023/10/16 02:22:53;;;;;;;4.50;1.92;;;;;;;6.14;100.00;100794.03;5589661;31;34194;-65
2023/10/16 02:26:05;;;;;;;4.35;2.08;;;;;;;6.08;100.00;100798.03;5589512;31;34110;-64
2023/10/16 02:29:12;;;;;;;4.30;1.70;;;;;;;6.05;100.00;100807.00;5589560;31;32735;-65
2023/10/16 02:32:16;;;;;;;4.35;1.83;;;;;;;6.03;100.00;100819.47;5589463;31;34251;-66
2023/10/16 02:35:22;;;;;;;3.90;1.75;;;;;;;6.09;100.00;100815.50;5575711;31;34766;-64
2023/10/16 02:38:27;;;;;;;5.37;1.70;;;;;;;6.06;100.00;100810.47;5589600;31;34386;-64
2023/10/16 02:41:31;;;;;;;5.70;2.20;;;;;;;5.98;100.00;100811.13;5589608;31;34810;-65
2023/10/16 02:44:42;;;;;;;3.28;1.80;;;;;;;6.04;100.00;100817.69;5575647;31;34123;-66
2023/10/16 02:47:46;;;;;;;5.25;2.08;;;;;;;5.99;100.00;100827.75;5589330;31;34201;-64
2023/10/16 02:50:50;;;;;;;6.05;1.85;;;;;;;5.97;100.00;100834.94;5589377;31;34780;-65
2023/10/16 02:53:54;;;;;;;4.95;1.90;;;;;;;5.97;100.00;100822.63;5575638;31;34184;-64
2023/10/16 02:56:59;;;;;;;3.42;1.75;;;;;;;5.99;100.00;100817.22;5589252;31;34068;-64
2023/10/16 03:00:07;;;;;;;5.22;1.85;;;;;;;5.99;100.00;100819.87;5589551;31;34139;-66
2023/10/16 03:03:10;;;;;;;4.15;1.77;;;;;;;5.98;100.00;100828.72;5589780;31;34889;-65
2023/10/16 03:06:14;;;;;;;3.53;1.80;;;;;;;5.99;100.00;100822.50;5575652;31;34115;-65
2023/10/16 03:09:28;;;;;;;5.75;1.83;;;;;;;5.98;100.00;100823.47;5589311;31;34049;-65
2023/10/16 03:12:31;;;;;;;3.78;1.80;;;;;;;5.91;100.00;100809.13;5574850;31;34083;-65
2023/10/16 03:15:41;;;;;;;4.55;1.90;;;;;;;5.93;100.00;100800.13;5588551;31;34099;-65
2023/10/16 03:18:47;;;;;;;4.75;2.10;;;;;;;5.89;100.00;100803.16;5589112;31;35159;-65
2023/10/16 03:21:51;;;;;;;4.37;1.87;;;;;;;5.87;100.00;100807.69;5589489;31;34711;-65
2023/10/16 03:24:59;;;;;;;6.68;1.95;;;;;;;5.91;100.00;100822.28;5589188;31;34712;-65
2023/10/16 03:28:05;;;;;;;4.95;1.83;;;;;;;5.80;100.00;100817.06;5588898;31;34098;-66
2023/10/16 03:31:08;;;;;;;4.97;1.90;;;;;;;5.75;100.00;100809.53;5588897;31;34233;-65
2023/10/16 03:34:11;;;;;;;5.22;1.73;;;;;;;5.75;100.00;100822.69;5575215;31;34233;-66
2023/10/16 03:37:16;;;;;;;4.07;1.87;;;;;;;5.72;100.00;100825.56;5588955;31;34159;-66
2023/10/16 03:40:20;;;;;;;4.87;1.90;;;;;;;5.74;100.00;100834.19;5589060;31;33979;-65
2023/10/16 03:43:22;;;;;;;5.53;2.00;;;;;;;5.77;100.00;100833.09;5589043;31;34802;-66
2023/10/16 03:46:28;;;;;;;3.20;2.15;;;;;;;5.69;100.00;100831.94;5589059;31;34684;-66
2023/10/16 03:49:31;;;;;;;3.25;1.80;;;;;;;5.70;100.00;100824.88;5589173;31;34212;-65
2023/10/16 03:52:35;;;;;;;4.35;1.87;;;;;;;5.67;100.00;100835.62;5588840;31;35095;-66
2023/10/16 03:55:49;;;;;;;4.00;1.80;;;;;;;5.70;100.00;100827.50;5588597;31;34330;-65
2023/10/16 03:58:55;;;;;;;4.47;1.90;;;;;;;5.72;100.00;100827.34;5588661;31;33768;-65
2023/10/16 04:02:03;;;;;;;6.37;2.00;;;;;;;5.65;100.00;100827.03;5574820;31;34140;-64
2023/10/16 04:05:27;;;;;;;3.92;2.00;;;;;;;5.63;100.00;100835.06;5588509;31;34282;-65
2023/10/16 04:08:30;;;;;;;4.07;2.00;;;;;;;5.60;100.00;100834.47;5588549;31;34365;-65
2023/10/16 04:11:33;;;;;;;5.60;2.17;;;;;;;5.58;100.00;100833.75;5588378;31;34068;-64
2023/10/16 04:14:45;;;;;;;4.40;2.08;;;;;;;5.56;100.00;100826.00;5588278;31;35162;-64
2023/10/16 04:18:04;;;;;;;5.80;2.10;;;;;;;5.59;100.00;100831.00;5574796;31;34165;-65
2023/10/16 04:27:34;;;;;;;5.65;2.42;;;;;;;5.42;100.00;100839.41;5591046;31;34155;-64
2023/10/16 04:30:39;;;;;;;4.05;2.08;;;;;;;5.44;100.00;100837.50;5590332;31;34177;-64
2023/10/16 04:33:48;;;;;;;4.87;2.30;;;;;;;5.40;100.00;100835.25;5590256;31;34135;-64
2023/10/16 04:41:31;;;;;;;3.83;2.08;;;;;;;5.40;100.00;100832.63;5590593;31;34138;-65
2023/10/16 04:47:07;;;;;;;8.77;2.30;;;;;;;5.36;100.00;100841.72;5590222;31;34093;-66
2023/10/16 04:50:11;;;;;;;4.43;2.10;;;;;;;5.37;100.00;100843.41;5590360;31;34140;-65
2023/10/16 04:53:14;;;;;;;3.10;1.92;;;;;;;5.39;100.00;100836.19;5590452;31;34802;-64
2023/10/16 04:56:30;;;;;;;6.35;2.10;;;;;;;5.37;100.00;100831.09;5590272;31;34109;-65
2023/10/16 04:59:59;;;;;;;5.53;2.40;;;;;;;5.33;100.00;100845.41;5590507;31;34253;-67
2023/10/16 05:03:22;;;;;;;3.97;2.20;;;;;;;5.28;100.00;100842.31;5590479;31;33526;-65
2023/10/16 05:10:12;;;;;;;6.25;2.12;;;;;;;5.21;100.00;100849.03;5590247;31;34034;-66
2023/10/16 05:13:37;;;;;;;6.15;2.47;;;;;;;5.22;100.00;100854.19;5590139;31;34514;-66
2023/10/16 05:21:05;;;;;;;6.07;2.30;;;;;;;5.12;100.00;100860.28;5590061;31;34245;-65
2023/10/16 06:17:15;;;;;;;5.12;2.20;;;;;;;5.60;100.00;100916.06;5589556;31;33500;-65
2023/10/16 06:20:22;;;;;;;4.80;2.22;;;;;;;5.60;100.00;100922.16;5589344;31;34529;-65
2023/10/16 06:23:28;;;;;;;5.78;2.33;;;;;;;5.74;100.00;100918.44;5575759;31;34147;-65
2023/10/16 06:26:31;;;;;;;5.10;2.42;;;;;;;5.97;100.00;100927.12;5589340;31;34079;-65
2023/10/16 06:29:35;;;;;;;4.28;2.20;;;;;;;5.79;100.00;100931.22;5589063;31;34028;-66
2023/10/16 06:32:38;;;;;;;17.40;2.45;;;;;;;5.71;100.00;100941.53;5589149;31;34352;-66
2023/10/16 06:35:41;;;;;;;9.15;2.60;;;;;;;5.74;100.00;100942.13;5589182;31;34965;-66
2023/10/16 06:38:45;;;;;;;5.37;2.22;;;;;;;5.79;100.00;100941.75;5589294;31;32279;-66
2023/10/16 06:41:54;;;;;;;4.97;2.20;;;;;;;5.68;100.00;100946.06;5589338;31;33197;-67
2023/10/16 06:45:06;;;;;;;5.47;2.33;;;;;;;5.71;100.00;100942.37;5589688;31;34212;-66
2023/10/16 06:48:15;;;;;;;7.12;2.45;;;;;;;5.79;100.00;100933.84;5575255;31;34346;-64
2023/10/16 06:51:25;;;;;;;5.57;2.50;;;;;;;5.88;100.00;100946.31;5589261;31;34225;-64
2023/10/16 06:54:29;;;;;;;6.20;2.50;;;;;;;5.88;100.00;100947.12;5589366;31;34050;-64
2023/10/16 06:57:32;;;;;;;6.03;2.10;;;;;;;5.91;100.00;100952.16;5588945;31;34157;-64
2023/10/16 07:00:38;;;;;;;7.07;2.17;;;;;;;5.98;100.00;100966.50;5589362;31;34147;-65
2023/10/16 07:03:42;;;;;;;6.78;2.00;;;;;;;6.14;100.00;100975.81;5589107;31;34064;-65
2023/10/16 07:06:48;;;;;;;8.40;1.98;;;;;;;6.36;100.00;100987.09;5589053;31;34761;-65
2023/10/16 07:09:51;;;;;;;7.55;2.30;;;;;;;6.18;100.00;100990.41;5589062;31;32913;-65
2023/10/16 07:13:02;;;;;;;6.97;2.10;;;;;;;6.18;100.00;100995.66;5589069;31;34105;-64
2023/10/16 07:16:07;;;;;;;5.30;1.83;;;;;;;6.24;100.00;100984.62;5588983;31;34069;-65
2023/10/16 07:19:16;;;;;;;8.38;2.40;;;;;;;6.38;100.00;100981.69;5588972;31;34106;-64
2023/10/16 07:22:22;;;;;;;5.47;1.90;;;;;;;6.46;100.00;100989.81;5589348;31;34075;-65
2023/10/16 07:25:47;;;;;;;4.70;2.10;;;;;;;6.59;100.00;100992.25;5589043;31;34187;-65
2023/10/16 07:28:50;;;;;;;4.87;1.95;;;;;;;6.66;100.00;100983.72;5588812;31;34808;-64
2023/10/16 07:31:54;;;;;;;8.77;1.83;;;;;;;6.99;100.00;100998.50;5588668;31;34168;-65
2023/10/16 07:34:57;;;;;;;4.65;1.90;;;;;;;7.27;100.00;100989.06;5588463;31;34210;-65
2023/10/16 07:38:00;;;;;;;4.82;1.75;;;;;;;8.05;100.00;100991.84;5588551;31;34251;-65
2023/10/16 07:41:03;;;;;;;14.80;2.20;;;;;;;9.04;100.00;100991.56;5588718;31;34229;-65
2023/10/16 07:44:06;;;;;;;14.15;2.08;;;;;;;10.50;100.00;101001.31;5588686;31;34381;-66
2023/10/16 07:47:09;;;;;;;6.55;1.73;;;;;;;11.99;89.06;101002.72;5588562;31;34391;-66
2023/10/16 07:50:12;;;;;;;6.53;1.62;;;;;;;12.00;77.56;100995.59;5588489;31;34886;-66
2023/10/16 07:53:17;;;;;;;7.30;1.55;;;;;;;11.20;85.52;100995.03;5588590;31;34825;-66
2023/10/16 07:59:28;;;;;;;3.05;1.40;;;;;;;12.25;73.57;101007.13;5587549;31;34170;-66
2023/10/16 08:02:31;;;;;;;6.55;1.40;;;;;;;12.44;72.26;101004.97;5588253;31;32503;-66
2023/10/16 08:05:34;;;;;;;6.80;1.80;;;;;;;14.01;65.08;101019.53;5588020;31;35094;-66
2023/10/16 08:08:38;;;;;;;4.47;1.33;;;;;;;14.81;60.43;101023.56;5588154;31;34547;-66
2023/10/16 08:11:44;;;;;;;5.37;1.50;;;;;;;15.13;57.72;101030.44;5587917;31;35028;-66
2023/10/16 08:14:47;;;;;;;4.68;2.45;;;;;;;12.67;63.79;101026.47;5587972;31;34282;-66
2023/10/16 08:17:51;;;;;;;6.57;1.87;;;;;;;14.06;59.77;101023.34;5588042;31;34315;-68
2023/10/16 08:21:05;;;;;;;6.22;2.30;;;;;;;13.02;65.04;101028.78;5587611;31;34264;-66
2023/10/16 08:24:13;;;;;;;9.55;1.67;;;;;;;10.72;79.79;101021.22;5587262;31;34379;-65
2023/10/16 08:27:22;;;;;;;6.75;1.70;;;;;;;9.92;93.91;101017.53;5587642;31;35342;-65
2023/10/16 08:30:44;;;;;;;4.40;1.40;;;;;;;9.12;100.00;101025.25;5587471;31;34444;-65
2023/10/16 08:33:47;;;;;;;3.47;1.50;;;;;;;8.90;100.00;101028.22;5587619;31;34395;-65
2023/10/16 08:36:51;;;;;;;4.62;1.50;;;;;;;8.75;100.00;101027.81;5587483;31;34227;-64
2023/10/16 08:39:54;;;;;;;6.20;2.12;;;;;;;8.69;100.00;101023.09;5587859;31;34477;-67
2023/10/16 08:43:00;;;;;;;7.32;2.10;;;;;;;8.61;100.00;101026.44;5587493;31;34181;-65
2023/10/16 08:46:09;;;;;;;4.32;1.73;;;;;;;8.64;100.00;101020.03;5588051;31;34859;-65
2023/10/16 08:49:14;;;;;;;11.10;1.98;;;;;;;8.66;100.00;101026.00;5587287;31;34219;-66
2023/10/16 08:52:20;;;;;;;5.18;1.90;;;;;;;8.55;100.00;101026.97;5587419;31;34940;-65
2023/10/16 08:55:26;;;;;;;4.35;1.45;;;;;;;8.38;100.00;101021.53;5587360;31;34307;-64
2023/10/16 08:58:38;;;;;;;5.55;1.80;;;;;;;8.52;100.00;101023.78;5587232;31;34295;-64
2023/10/16 09:01:41;;;;;;;6.68;1.58;;;;;;;8.65;100.00;101019.87;5573466;31;34317;-65
2023/10/16 09:04:48;;;;;;;5.68;1.65;;;;;;;8.68;100.00;101016.94;5587287;31;35175;-64
2023/10/16 09:07:51;;;;;;;4.43;1.60;;;;;;;8.71;100.00;101018.50;5573249;31;34188;-64
2023/10/16 09:10:55;;;;;;;5.18;1.70;;;;;;;8.82;100.00;101025.44;5573421;31;34130;-64
2023/10/16 09:13:59;;;;;;;6.45;1.87;;;;;;;8.72;100.00;101028.91;5589920;31;34821;-65
2023/10/16 09:17:03;;;;;;;5.10;1.30;;;;;;;8.82;100.00;101031.56;5589698;31;34124;-64
2023/10/16 09:20:17;;;;;;;7.65;1.70;;;;;;;8.87;100.00;101031.13;5589703;31;35683;-65
2023/10/16 09:23:23;;;;;;;6.32;1.67;;;;;;;8.83;100.00;101037.69;5590286;31;34130;-65
2023/10/16 09:26:32;;;;;;;5.20;1.67;;;;;;;8.73;100.00;101038.53;5589801;31;32678;-66
2023/10/16 09:29:35;;;;;;;5.25;1.52;;;;;;;8.76;100.00;101036.59;5589792;31;34111;-65
2023/10/16 09:32:39;;;;;;;6.40;1.40;;;;;;;8.75;100.00;101025.19;5576263;31;34324;-65
2023/10/16 09:35:45;;;;;;;7.80;1.77;;;;;;;8.76;100.00;101029.50;5589659;31;34118;-66
2023/10/16 09:38:52;;;;;;;5.30;1.83;;;;;;;8.99;100.00;101024.72;5589895;31;34829;-67
2023/10/16 09:41:59;;;;;;;6.10;1.65;;;;;;;8.94;99.35;101021.66;5589943;31;34247;-66
2023/10/16 09:45:09;;;;;;;6.85;1.73;;;;;;;8.96;100.00;101023.19;5589666;31;34241;-66
2023/10/16 09:48:19;;;;;;;10.57;1.80;;;;;;;8.92;99.55;101020.97;5589632;31;34870;-68
2023/10/16 09:51:24;;;;;;;5.35;1.50;;;;;;;9.01;98.04;101023.59;5592186;31;34186;-66
2023/10/16 09:58:34;;;;;;;4.93;1.35;;;;;;;9.02;95.02;101014.69;5589766;31;34826;-65
2023/10/16 10:01:48;;;;;;;6.45;1.80;;;;;;;9.10;100.00;101014.00;5576378;31;34849;-67
2023/10/16 10:05:08;;;;;;;4.90;1.65;;;;;;;9.16;100.00;101005.44;5589719;31;34982;-65
2023/10/16 10:08:18;;;;;;;5.43;1.40;;;;;;;9.31;96.77;100987.28;5590047;31;34341;-66
2023/10/16 10:11:44;;;;;;;;;;;;;;;9.37;89.32;100982.25;5576274;31;34152;-65
2023/10/16 10:15:04;;;;;;;6.47;1.87;;;;;;;9.57;88.00;100980.38;5589703;31;34744;-66
2023/10/16 10:21:47;;;;;;;7.03;1.52;;;;;;;9.76;86.98;100968.84;5564978;31;34247;-65
2023/10/16 10:25:22;;;;;;;5.72;1.50;;;;;;;9.72;88.65;100970.97;5589286;31;34849;-66
2023/10/16 10:28:32;;;;;;;9.15;1.77;;;;;;;9.84;88.74;100982.16;5589809;31;34790;-66
2023/10/16 10:31:37;;;;;;;3.85;1.60;;;;;;;9.92;80.68;100980.44;5589655;31;34190;-65
2023/10/16 10:34:43;;;;;;;5.03;1.58;;;;;;;9.77;80.00;100975.81;5589530;31;34178;-65
2023/10/16 10:37:47;;;;;;;6.55;1.40;;;;;;;9.94;79.96;100980.31;5589334;31;34249;-66
2023/10/16 10:41:11;;;;;;;7.70;1.67;;;;;;;10.07;78.89;100974.66;5589197;31;34291;-65
2023/10/16 10:44:16;;;;;;;7.05;1.70;;;;;;;10.21;78.62;100968.87;5589182;31;34874;-64
2023/10/16 10:47:32;;;;;;;5.00;1.70;;;;;;;10.25;79.15;100964.91;5575196;31;34798;-65
2023/10/16 10:50:40;;;;;;;4.40;1.80;;;;;;;10.11;82.16;100963.59;5589157;31;34935;-65
2023/10/16 10:53:56;;;;;;;5.15;1.40;;;;;;;10.25;79.03;100957.81;5589527;31;34107;-63
2023/10/16 10:57:09;;;;;;;7.70;1.77;;;;;;;10.90;68.97;100937.06;5589288;31;34931;-66
2023/10/16 11:03:41;;;;;;;4.82;1.33;;;;;;;15.13;50.83;100939.56;5588953;31;34173;-66
2023/10/16 11:06:52;;;;;;;5.97;1.40;;;;;;;15.34;49.10;100928.16;5589046;31;34173;-67
2023/10/16 11:09:57;;;;;;;9.65;1.40;;;;;;;16.87;45.56;100933.09;5588767;31;34925;-67
2023/10/16 11:13:03;;;;;;;9.02;1.52;;;;;;;17.47;44.00;100927.06;5588824;31;34444;-67
2023/10/16 11:16:08;;;;;;;3.67;1.20;;;;;;;20.04;38.80;100921.63;5588491;31;34293;-66
2023/10/16 11:19:12;;;;;;;5.20;1.50;;;;;;;19.32;39.25;100926.25;5588755;31;34439;-66
2023/10/16 11:22:19;;;;;;;5.28;1.20;;;;;;;22.53;34.66;100928.91;5588706;31;35269;-66
2023/10/16 11:25:29;;;;;;;4.45;1.20;;;;;;;22.83;33.35;100926.13;5588770;31;35012;-66
2023/10/16 11:28:32;;;;;;;2.85;1.10;;;;;;;22.56;32.46;100917.59;5574703;31;34395;-66
2023/10/16 11:31:40;;;;;;;2.83;1.08;;;;;;;20.29;34.78;100907.13;5588741;31;35284;-66
2023/10/16 11:34:46;;;;;;;5.05;1.80;;;;;;;20.79;34.67;100912.56;5587608;31;35233;-66
2023/10/16 11:37:52;;;;;;;4.35;1.00;;;;;;;19.39;37.58;100902.84;5588471;31;34257;-67
2023/10/16 11:41:16;;;;;;;6.90;1.25;;;;;;;20.37;35.64;100904.22;5574889;31;35342;-68
2023/10/16 11:44:25;;;;;;;6.18;1.10;;;;;;;23.31;31.44;100910.44;5588600;31;34301;-68
2023/10/16 11:47:39;;;;;;;5.57;1.00;;;;;;;26.11;27.38;100914.66;5588783;31;34882;-68
2023/10/16 11:51:09;;;;;;;4.30;1.35;;;;;;;25.87;27.67;100905.16;5578321;31;33615;-69
2023/10/16 11:54:19;;;;;;;9.90;1.67;;;;;;;22.93;30.30;100913.69;5588457;31;35398;-66
2023/10/16 11:57:25;;;;;;;3.17;1.00;;;;;;;22.65;31.51;100910.00;5588515;31;34318;-66
2023/10/16 12:00:31;;;;;;;5.28;1.37;;;;;;;22.93;31.78;100891.19;5588298;31;34277;-67
2023/10/16 12:03:37;;;;;;;4.15;1.27;;;;;;;23.59;30.24;100898.03;5588367;31;34260;-67
2023/10/16 12:06:44;;;;;;;5.22;1.42;;;;;;;25.81;27.59;100915.16;5588207;31;33974;-66
2023/10/16 12:09:53;;;;;;;6.68;1.50;;;;;;;21.74;31.30;100908.41;5588241;31;34377;-65
2023/10/16 12:12:56;;;;;;;5.97;1.30;;;;;;;19.69;35.04;100900.47;5588225;31;34301;-67
2023/10/16 12:15:59;;;;;;;2.65;1.10;;;;;;;18.34;37.10;100886.88;5588418;31;34196;-67
2023/10/16 12:19:05;;;;;;;4.37;1.50;;;;;;;17.16;38.35;100889.97;5588223;31;34075;-68
2023/10/16 12:22:15;;;;;;;2.67;1.42;;;;;;;15.80;42.01;100881.44;5588185;31;34942;-67
2023/10/16 12:25:21;;;;;;;4.55;1.20;;;;;;;14.55;45.12;100876.22;5588067;31;34317;-67
2023/10/16 12:28:25;;;;;;;4.22;1.45;;;;;;;14.10;45.92;100867.22;5587943;31;34089;-66
2023/10/16 12:31:30;;;;;;;2.65;1.12;;;;;;;13.76;47.59;100872.97;5588002;31;34221;-66
2023/10/16 12:34:34;;;;;;;4.90;1.30;;;;;;;13.58;47.89;100871.59;5574151;31;34113;-66
2023/10/16 12:37:37;;;;;;;5.70;1.50;;;;;;;13.28;47.88;100868.72;5587861;31;34231;-67
2023/10/16 12:40:39;;;;;;;3.33;1.10;;;;;;;13.35;48.15;100868.88;5587809;31;34852;-66
2023/10/16 12:43:43;;;;;;;4.80;1.50;;;;;;;12.75;49.64;100872.03;5588119;31;34109;-66
2023/10/16 12:46:46;;;;;;;4.37;1.20;;;;;;;12.79;49.62;100873.34;5575066;31;34114;-67
2023/10/16 12:49:53;;;;;;;4.22;1.20;;;;;;;13.03;49.88;100862.62;5590045;31;34065;-66
2023/10/16 12:52:57;;;;;;;4.20;1.42;;;;;;;12.87;49.70;100861.88;5590201;31;34178;-66
2023/10/16 12:56:00;;;;;;;4.95;1.20;;;;;;;12.56;50.49;100856.44;5590159;31;35145;-66
2023/10/16 12:59:03;;;;;;;2.90;1.17;;;;;;;12.34;52.65;100854.47;5589742;31;34800;-65
2023/10/16 13:02:09;;;;;;;6.75;1.25;;;;;;;12.36;52.34;100868.44;5590038;31;35036;-65
2023/10/16 13:05:16;;;;;;;3.35;1.05;;;;;;;12.38;51.45;100872.59;5576476;31;34916;-67
2023/10/16 13:08:21;;;;;;;4.70;1.37;;;;;;;12.26;51.69;100863.28;5590681;31;34052;-66
2023/10/16 13:11:24;;;;;;;8.88;1.45;;;;;;;12.31;51.17;100860.94;5576280;31;34774;-66
2023/10/16 13:14:27;;;;;;;5.57;1.37;;;;;;;12.03;52.06;100868.44;5590349;31;34016;-66
2023/10/16 13:17:31;;;;;;;4.60;1.25;;;;;;;11.95;52.37;100859.63;5589923;31;35035;-66
2023/10/16 13:20:36;;;;;;;5.37;1.40;;;;;;;12.00;52.91;100859.97;5589594;31;35042;-67
2023/10/16 13:23:39;;;;;;;4.50;1.30;;;;;;;12.10;54.51;100857.97;5589782;31;35226;-66
2023/10/16 13:26:52;;;;;;;6.68;1.73;;;;;;;12.13;51.33;100852.31;5589834;31;34805;-65
2023/10/16 13:29:55;;;;;;;3.37;1.30;;;;;;;12.14;51.59;100859.31;5589645;31;34224;-67
2023/10/16 13:33:06;;;;;;;4.15;1.30;;;;;;;12.14;52.23;100851.34;5589601;31;34194;-67
2023/10/16 13:36:11;;;;;;;6.32;1.65;;;;;;;12.04;50.94;100853.31;5589523;31;34023;-67
2023/10/16 13:39:19;;;;;;;4.57;1.50;;;;;;;12.36;51.25;100850.63;5575621;31;34052;-67
2023/10/16 13:42:23;;;;;;;4.87;1.17;;;;;;;12.26;49.80;100852.62;5589769;31;34122;-68
2023/10/16 13:45:27;;;;;;;5.53;1.50;;;;;;;12.06;50.63;100854.81;5589557;31;34196;-67
2023/10/16 13:48:31;;;;;;;2.90;1.20;;;;;;;12.01;51.82;100851.81;5589315;31;34275;-67
2023/10/16 13:51:35;;;;;;;5.20;1.40;;;;;;;11.91;51.85;100851.13;5589351;31;34095;-67
2023/10/16 13:54:40;;;;;;;11.95;1.60;;;;;;;11.80;51.51;100840.00;5575624;31;34838;-67
2023/10/16 13:57:44;;;;;;;2.92;1.30;;;;;;;11.78;51.40;100842.81;5588495;31;34112;-66
2023/10/16 14:00:48;;;;;;;5.18;1.10;;;;;;;11.76;50.70;100845.62;5589152;31;34189;-66
2023/10/16 14:03:50;;;;;;;6.03;1.27;;;;;;;11.86;53.10;100848.13;5589514;31;34764;-65
2023/10/16 14:06:53;;;;;;;7.35;1.40;;;;;;;11.70;50.03;100854.25;5575489;31;34760;-64
2023/10/16 14:09:56;;;;;;;4.60;1.37;;;;;;;11.63;51.44;100841.75;5588792;31;34285;-66
2023/10/16 14:13:00;;;;;;;5.95;1.10;;;;;;;11.56;50.79;100840.75;5588722;31;34140;-67
2023/10/16 14:16:11;;;;;;;3.67;1.23;;;;;;;11.54;51.49;100842.75;5589670;31;34003;-67
2023/10/16 14:19:14;;;;;;;4.32;1.40;;;;;;;11.49;51.96;100832.59;5589146;31;34050;-67
2023/10/16 14:22:19;;;;;;;7.78;1.70;;;;;;;11.40;51.79;100833.56;5575308;31;35055;-67
2023/10/16 14:25:31;;;;;;;6.25;1.48;;;;;;;11.39;52.45;100839.03;5589729;31;34111;-65
2023/10/16 14:28:38;;;;;;;6.18;1.35;;;;;;;11.32;51.86;100828.25;5588680;31;35055;-65
2023/10/16 14:31:45;;;;;;;4.90;1.20;;;;;;;11.33;51.58;100827.22;5588798;31;34164;-66
2023/10/16 14:34:49;;;;;;;6.00;1.35;;;;;;;11.30;52.09;100827.56;5589303;31;34341;-66
2023/10/16 14:37:52;;;;;;;2.53;1.12;;;;;;;11.26;52.62;100832.38;5589532;31;34166;-66
2023/10/16 14:40:55;;;;;;;7.25;1.48;;;;;;;11.33;54.20;100848.47;5575056;31;34406;-66
2023/10/16 14:43:58;;;;;;;4.15;1.10;;;;;;;11.22;53.57;100836.34;5575018;31;35132;-66
2023/10/16 14:47:10;;;;;;;6.18;1.70;;;;;;;11.15;54.91;100837.13;5588346;31;34605;-67
2023/10/16 14:50:14;;;;;;;5.70;1.37;;;;;;;11.11;56.06;100827.84;5588332;31;34261;-67
2023/10/16 14:53:19;;;;;;;5.32;1.45;;;;;;;11.03;56.75;100822.50;5588550;31;35329;-66
2023/10/16 14:56:22;;;;;;;5.40;1.10;;;;;;;10.99;56.33;100818.50;5588440;31;34218;-66
2023/10/16 14:59:26;;;;;;;4.70;1.10;;;;;;;11.01;55.63;100825.31;5588798;31;34053;-67
2023/10/16 15:02:30;;;;;;;5.28;1.17;;;;;;;10.98;56.28;100820.31;5588147;31;34084;-67
2023/10/16 15:05:33;;;;;;;7.28;1.27;;;;;;;11.05;57.10;100825.81;5588455;31;34341;-68
2023/10/16 15:08:37;;;;;;;4.68;1.27;;;;;;;11.00;56.46;100820.97;5575053;31;34231;-66
2023/10/16 15:11:40;;;;;;;8.27;1.35;;;;;;;10.94;56.62;100810.19;5588526;31;35077;-66
2023/10/16 15:14:44;;;;;;;6.70;1.40;;;;;;;10.88;56.02;100815.16;5575049;31;34033;-67
2023/10/16 15:17:47;;;;;;;6.12;1.30;;;;;;;10.88;55.58;100820.44;5588585;31;34414;-67
2023/10/16 15:20:50;;;;;;;5.93;1.33;;;;;;;10.91;57.05;100821.94;5588083;31;34159;-66
2023/10/16 15:23:54;;;;;;;5.15;1.20;;;;;;;10.83;56.08;100814.78;5588294;31;34029;-67
2023/10/16 15:26:56;;;;;;;11.15;1.30;;;;;;;10.75;56.82;100811.25;5574733;31;34420;-66
2023/10/16 15:29:59;;;;;;;38.42;2.83;;;;;;;10.67;56.08;100813.84;5589026;31;34059;-66
2023/10/16 15:33:03;;;;;;;4.82;1.15;;;;;;;10.59;56.97;100816.47;5588789;31;34528;-65
2023/10/16 15:36:07;;;;;;;5.95;1.48;;;;;;;10.54;57.74;100816.13;5588580;31;34178;-66
2023/10/16 15:39:15;;;;;;;4.85;2.10;;;;;;;10.48;57.87;100822.88;5588663;31;34810;-66
2023/10/16 15:42:20;;;;;;;9.48;1.80;;;;;;;10.41;57.59;100830.63;5588183;31;34820;-66
2023/10/16 15:45:34;;;;;;;4.22;1.17;;;;;;;10.37;59.17;100833.72;5574683;31;35125;-66
2023/10/16 15:48:37;;;;;;;5.25;1.30;;;;;;;10.20;60.12;100829.31;5580453;31;245744;-67
2023/10/16 15:51:40;;;;;;;4.12;1.20;;;;;;;10.14;62.77;100836.03;5574559;31;34161;-66
2023/10/16 15:54:44;;;;;;;7.05;1.70;;;;;;;10.07;64.50;100834.16;5574694;31;34051;-66
2023/10/16 15:57:47;;;;;;;3.20;1.30;;;;;;;9.99;62.86;100833.09;5574718;31;34109;-66